This is the latest recevied weather packets stored in our database for station/object KO5MO-11. If no packets are shown the sender has not sent any weather packets the latest 10 day(s).
| Time | Temp. | Humidity | Pressure | Rain* | Wind** | Luminosity | Snow |
|---|---|---|---|---|---|---|---|
| 1777477477 | 26.11° C | 33% | 1013.6 hPa | - | - | 796 W/m² | - |
| 1777476877 | 25° C | 33% | 1013.6 hPa | - | - | 774 W/m² | - |
| 1777475749 | 25.56° C | 34% | 1013.7 hPa | - | - | 781 W/m² | - |
| 1777475149 | 26.67° C | 32% | 1013.8 hPa | - | - | 800 W/m² | - |
| 1777474992 | 26.11° C | 32% | 1013.7 hPa | - | - | 798 W/m² | - |
| 1777474392 | 25° C | 33% | 1013.8 hPa | - | - | 779 W/m² | - |
| 1777473792 | 25° C | 33% | 1013.6 hPa | - | - | 773 W/m² | - |
| 1777473192 | 25° C | 34% | 1013.6 hPa | - | - | 776 W/m² | - |
| 1777472592 | 25.56° C | 34% | 1013.5 hPa | - | - | 781 W/m² | - |
| 1777471992 | 25.56° C | 32% | 1013.5 hPa | - | - | 780 W/m² | - |
| 1777471392 | 25° C | 33% | 1013.4 hPa | - | - | 779 W/m² | - |
| 1777470792 | 25.56° C | 33% | 1013.5 hPa | - | - | 785 W/m² | - |
| 1777470192 | 26.67° C | 32% | 1013.3 hPa | - | - | 800 W/m² | - |
| 1777469592 | 26.11° C | 31% | 1013.4 hPa | - | - | 796 W/m² | - |
| 1777468992 | 26.11° C | 32% | 1013.3 hPa | - | - | 794 W/m² | - |
| 1777468392 | 26.11° C | 32% | 1013.2 hPa | - | - | 797 W/m² | - |
| 1777467792 | 26.67° C | 31% | 1013.2 hPa | - | - | 802 W/m² | - |
| 1777467192 | 26.11° C | 32% | 1013.1 hPa | - | - | 795 W/m² | - |
| 1777466867 | 25.56° C | 32% | 1013 hPa | - | - | - | - |
| 1777466804 | 26.11° C | 32% | 1013 hPa | - | - | 791 W/m² | - |
| 1777466732 | 26.11° C | 32% | 1013 hPa | - | - | 792 W/m² | - |
| 1777466309 | 26.11° C | 32% | 1012.8 hPa | - | - | - | - |
| 1777466237 | 26.11° C | 32% | 1012.9 hPa | - | - | - | - |
| 1777465726 | 26.11° C | 32% | 1012.8 hPa | - | - | - | - |
| 1777465126 | 26.11° C | 32% | 1012.5 hPa | - | - | - | - |
* Rain since midnight (hover to see other rain measurements)
** Current wind speed in m/s (hover to see current wind gust speed)